Time;durP1;ratioP1;P1;durP2;ratioP2;P2;SDS_P1;SDS_P2;PMS_P1;PMS_P2;Temp;Humidity;BMP_temperature;BMP_pressure;BME280_temperature;BME280_humidity;BME280_pressure;Samples;Min_cycle;Max_cycle;Signal;HPM_P1;HPM_P2
2022/10/21 00:01:27;;;;;;;63.00;59.88;;;;;;;10.29;100.00;100874.47;5057758;28;20037;-76
2022/10/21 00:03:52;;;;;;;62.13;59.03;;;;;;;10.19;100.00;100865.78;5058015;28;20034;-76
2022/10/21 00:06:17;;;;;;;60.00;56.67;;;;;;;10.11;100.00;100846.38;5058355;28;20503;-76
2022/10/21 00:08:43;;;;;;;63.28;59.83;;;;;;;10.24;100.00;100868.78;5055325;28;20163;-75
2022/10/21 00:11:09;;;;;;;61.88;58.67;;;;;;;10.21;100.00;100860.34;5059159;28;20037;-76
2022/10/21 00:13:37;;;;;;;63.97;60.92;;;;;;;10.20;100.00;100864.78;5057539;28;20032;-76
2022/10/21 00:16:11;;;;;;;56.53;53.15;;;;;;;10.18;100.00;100866.72;5057131;28;20028;-76
2022/10/21 00:18:39;;;;;;;57.20;54.35;;;;;;;10.04;100.00;100856.69;5057322;28;20044;-76
2022/10/21 00:21:14;;;;;;;56.45;53.78;;;;;;;10.06;100.00;100854.72;5056099;28;20087;-76
2022/10/21 00:23:39;;;;;;;59.95;57.10;;;;;;;10.12;100.00;100862.03;5057983;28;20063;-76
2022/10/21 00:26:05;;;;;;;60.63;57.42;;;;;;;10.16;100.00;100868.69;5057280;28;20381;-75
2022/10/21 00:28:31;;;;;;;65.25;61.85;;;;;;;10.14;100.00;100869.81;5056971;28;20025;-76
2022/10/21 00:30:57;;;;;;;62.55;59.38;;;;;;;10.13;100.00;100863.72;5058008;28;20516;-75
2022/10/21 00:33:23;;;;;;;60.63;57.47;;;;;;;10.12;100.00;100854.13;5059009;28;20028;-76
2022/10/21 00:36:01;;;;;;;59.30;55.72;;;;;;;10.13;100.00;100855.81;5058135;28;20047;-76
2022/10/21 00:38:28;;;;;;;55.08;52.10;;;;;;;10.07;100.00;100857.22;5057123;28;20050;-75
2022/10/21 00:40:53;;;;;;;52.20;49.35;;;;;;;10.09;100.00;100857.91;5058403;28;20478;-76
2022/10/21 00:43:19;;;;;;;61.42;58.28;;;;;;;10.12;100.00;100854.13;5056779;28;20035;-76
2022/10/21 00:45:47;;;;;;;59.25;55.72;;;;;;;9.99;100.00;100833.38;5058235;28;20111;-76
2022/10/21 00:48:33;;;;;;;60.22;57.13;;;;;;;10.12;100.00;100846.22;5061545;28;20368;-76
2022/10/21 00:51:13;;;;;;;56.28;52.85;;;;;;;10.08;100.00;100837.78;5062177;28;20032;-76
2022/10/21 00:53:43;;;;;;;54.92;51.95;;;;;;;10.04;100.00;100827.69;5066772;28;20450;-76
2022/10/21 00:56:17;;;;;;;58.85;55.67;;;;;;;10.04;100.00;100836.41;5061129;28;20127;-76
2022/10/21 00:58:45;;;;;;;55.70;52.70;;;;;;;10.04;100.00;100838.25;5057263;28;20035;-75
2022/10/21 01:01:10;;;;;;;57.92;54.97;;;;;;;10.03;100.00;100831.28;5060667;28;20029;-75
2022/10/21 01:03:35;;;;;;;57.20;54.15;;;;;;;10.01;100.00;100825.31;5060669;28;20070;-75
2022/10/21 01:06:05;;;;;;;64.03;61.00;;;;;;;10.00;100.00;100821.88;5060235;28;20039;-76
2022/10/21 01:08:31;;;;;;;55.78;53.05;;;;;;;10.00;100.00;100824.50;5060132;28;20379;-76
2022/10/21 01:10:58;;;;;;;59.95;56.55;;;;;;;9.98;100.00;100823.00;5061949;28;20036;-75
2022/10/21 01:13:56;;;;;;;59.47;55.88;;;;;;;9.98;100.00;100821.19;5068755;28;20144;-76
2022/10/21 01:16:39;;;;;;;53.53;50.65;;;;;;;9.92;100.00;100795.41;5060855;28;20036;-75
2022/10/21 01:19:26;;;;;;;57.33;54.25;;;;;;;10.01;100.00;100809.50;5058993;28;20024;-75
2022/10/21 01:22:03;;;;;;;50.80;48.15;;;;;;;10.03;100.00;100807.56;5059921;28;20048;-76
2022/10/21 01:24:52;;;;;;;56.38;52.78;;;;;;;9.98;100.00;100794.81;5057925;28;20020;-76
2022/10/21 01:27:49;;;;;;;50.97;47.97;;;;;;;9.91;100.00;100787.63;5060519;28;20029;-76
2022/10/21 01:30:27;;;;;;;53.25;50.28;;;;;;;10.00;100.00;100806.06;5058853;28;20020;-75
2022/10/21 01:33:04;;;;;;;53.75;50.47;;;;;;;9.98;100.00;100801.91;5060760;28;20027;-75
2022/10/21 01:35:35;;;;;;;56.00;52.67;;;;;;;9.94;100.00;100801.34;5061001;28;20025;-75
2022/10/21 01:38:03;;;;;;;57.92;54.42;;;;;;;9.99;100.00;100800.91;5060722;28;20587;-75
2022/10/21 01:40:40;;;;;;;61.05;57.72;;;;;;;9.98;100.00;100794.81;5059100;28;20476;-75
2022/10/21 01:43:11;;;;;;;56.08;53.28;;;;;;;9.99;100.00;100785.09;5061456;28;20024;-75
2022/10/21 01:45:47;;;;;;;59.67;56.35;;;;;;;10.00;100.00;100781.50;5060175;28;20464;-76
2022/10/21 01:48:19;;;;;;;56.85;54.03;;;;;;;9.90;100.00;100765.72;5059917;28;20518;-76
2022/10/21 01:50:50;;;;;;;58.63;55.35;;;;;;;9.88;100.00;100757.94;5059226;28;20035;-76
2022/10/21 01:53:16;;;;;;;54.83;51.92;;;;;;;9.93;100.00;100764.59;5060992;28;20483;-76
2022/10/21 01:55:44;;;;;;;67.88;64.05;;;;;;;9.98;100.00;100768.44;5056937;28;20028;-76
2022/10/21 01:58:32;;;;;;;62.90;59.63;;;;;;;10.01;100.00;100767.31;5057014;28;20048;-76
2022/10/21 02:01:00;;;;;;;58.65;55.33;;;;;;;9.93;100.00;100760.16;5066364;28;20028;-76
2022/10/21 02:03:31;;;;;;;60.72;56.58;;;;;;;9.97;100.00;100763.31;5060212;28;20036;-75
2022/10/21 02:05:57;;;;;;;57.70;54.70;;;;;;;10.01;100.00;100767.31;5060167;28;20105;-76
2022/10/21 02:08:22;;;;;;;54.55;51.67;;;;;;;10.00;100.00;100755.13;5060382;28;20689;-76
2022/10/21 02:10:51;;;;;;;59.42;56.35;;;;;;;9.95;100.00;100746.81;5059306;28;20113;-76
2022/10/21 02:13:25;;;;;;;55.03;51.65;;;;;;;9.96;100.00;100753.75;5057491;28;20052;-77
2022/10/21 02:15:55;;;;;;;57.65;54.35;;;;;;;9.94;100.00;100746.00;5059904;28;20036;-76
2022/10/21 02:18:24;;;;;;;59.42;56.20;;;;;;;9.99;100.00;100742.91;5065685;28;20090;-75
2022/10/21 02:20:58;;;;;;;59.60;56.70;;;;;;;9.93;100.00;100727.69;5060043;28;20027;-75
2022/10/21 02:23:44;;;;;;;60.53;57.60;;;;;;;10.05;100.00;100747.59;5060141;28;20106;-77
2022/10/21 02:26:10;;;;;;;57.78;54.60;;;;;;;10.04;100.00;100749.41;5058671;28;20032;-77
2022/10/21 02:28:36;;;;;;;59.97;56.65;;;;;;;9.97;100.00;100731.69;5057797;28;20040;-77
2022/10/21 02:31:43;;;;;;;60.08;56.97;;;;;;;10.05;100.00;100737.03;5058707;28;20119;-74
2022/10/21 02:34:40;;;;;;;54.72;51.75;;;;;;;10.04;100.00;100741.50;5058916;28;20067;-76
2022/10/21 02:37:45;;;;;;;56.95;53.97;;;;;;;10.08;100.00;100749.91;5056611;28;20032;-77
2022/10/21 02:40:23;;;;;;;52.38;49.70;;;;;;;10.07;100.00;100743.81;5054180;28;20496;-77
2022/10/21 02:42:54;;;;;;;59.00;55.35;;;;;;;10.11;100.00;100751.44;5057163;28;20119;-76
2022/10/21 02:45:21;;;;;;;61.40;57.78;;;;;;;10.04;100.00;100736.22;5056971;28;20542;-76
2022/10/21 02:47:47;;;;;;;59.33;56.13;;;;;;;10.12;100.00;100734.63;5054502;28;20427;-77
2022/10/21 02:50:12;;;;;;;64.38;60.88;;;;;;;10.23;100.00;100756.34;5055075;28;20082;-76
2022/10/21 02:52:38;;;;;;;61.20;56.85;;;;;;;10.26;100.00;100748.13;5055754;28;20043;-76
2022/10/21 02:55:04;;;;;;;66.00;62.13;;;;;;;10.25;100.00;100753.56;5055608;28;20086;-76
2022/10/21 02:57:29;;;;;;;61.83;58.92;;;;;;;10.34;100.00;100767.69;5040124;28;20523;-76
2022/10/21 02:59:54;;;;;;;62.38;59.22;;;;;;;10.38;100.00;100764.59;5055928;28;20032;-76
2022/10/21 03:02:20;;;;;;;60.10;56.55;;;;;;;10.41;100.00;100766.09;5055642;28;20055;-76
2022/10/21 03:04:45;;;;;;;64.68;61.33;;;;;;;10.44;100.00;100771.09;5041206;28;20480;-76
2022/10/21 03:07:10;;;;;;;60.88;57.10;;;;;;;10.46;100.00;100766.50;5054200;28;20051;-76
2022/10/21 03:09:36;;;;;;;56.25;52.80;;;;;;;10.51;100.00;100753.66;5046819;28;20083;-77
2022/10/21 03:12:01;;;;;;;61.40;57.65;;;;;;;10.54;100.00;100758.66;5030458;28;20024;-76
2022/10/21 03:14:26;;;;;;;60.38;56.83;;;;;;;10.44;100.00;100734.16;5039927;28;20107;-76
2022/10/21 03:16:52;;;;;;;64.97;61.78;;;;;;;10.59;100.00;100756.38;5038588;28;20136;-77
2022/10/21 03:19:17;;;;;;;62.17;58.40;;;;;;;10.51;100.00;100740.47;5056996;28;20090;-76
2022/10/21 03:21:42;;;;;;;62.17;58.75;;;;;;;10.56;100.00;100746.13;5056169;28;20074;-77
2022/10/21 03:24:08;;;;;;;58.70;55.40;;;;;;;10.72;100.00;100763.09;5072377;28;20663;-77
2022/10/21 03:26:33;;;;;;;59.30;55.85;;;;;;;10.75;100.00;100765.41;5057510;28;20460;-77
2022/10/21 03:28:59;;;;;;;58.25;55.08;;;;;;;10.81;100.00;100770.91;5057687;28;20047;-77
2022/10/21 03:31:24;;;;;;;58.97;56.03;;;;;;;10.86;100.00;100763.34;5057959;28;20040;-77
2022/10/21 03:33:49;;;;;;;50.03;47.05;;;;;;;10.88;100.00;100756.09;5058119;28;20055;-78
2022/10/21 03:36:15;;;;;;;57.40;54.42;;;;;;;10.93;100.00;100758.31;5058411;28;20480;-77
2022/10/21 03:38:40;;;;;;;53.67;50.75;;;;;;;10.97;100.00;100741.13;5058814;28;20059;-77
2022/10/21 03:41:05;;;;;;;53.22;50.47;;;;;;;10.94;100.00;100732.72;5057670;28;20083;-77
2022/10/21 03:43:31;;;;;;;51.22;48.78;;;;;;;11.07;100.00;100743.69;5057918;28;20091;-77
2022/10/21 03:45:56;;;;;;;54.30;51.55;;;;;;;11.12;100.00;100725.56;5057288;28;20047;-77
2022/10/21 03:48:21;;;;;;;54.92;51.83;;;;;;;11.15;100.00;100714.69;5057087;28;20071;-77
2022/10/21 03:50:47;;;;;;;48.90;46.70;;;;;;;11.17;100.00;100706.59;5056839;28;20532;-77
2022/10/21 03:53:12;;;;;;;48.05;45.38;;;;;;;11.11;100.00;100690.41;5057674;28;20035;-76
2022/10/21 03:55:37;;;;;;;50.88;47.97;;;;;;;11.21;100.00;100686.81;5056135;28;20120;-77
2022/10/21 03:58:03;;;;;;;48.63;45.78;;;;;;;11.21;100.00;100678.88;5057072;28;20062;-77
2022/10/21 04:00:28;;;;;;;48.40;46.03;;;;;;;11.24;100.00;100670.66;5057843;28;20036;-77
2022/10/21 04:02:54;;;;;;;52.70;49.42;;;;;;;11.25;100.00;100662.53;5040380;28;20037;-77
2022/10/21 04:05:19;;;;;;;47.55;44.65;;;;;;;11.16;100.00;100642.38;5057571;28;20029;-77
2022/10/21 04:07:44;;;;;;;52.05;49.40;;;;;;;11.22;100.00;100665.53;5055416;28;20056;-77
2022/10/21 04:10:10;;;;;;;51.35;49.00;;;;;;;11.26;100.00;100666.03;5057038;28;20036;-77
2022/10/21 04:12:36;;;;;;;51.40;48.15;;;;;;;11.28;100.00;100666.72;5057208;28;20129;-77
2022/10/21 04:15:02;;;;;;;55.00;51.38;;;;;;;11.25;100.00;100673.13;5055926;28;20031;-77
2022/10/21 04:17:28;;;;;;;55.22;51.90;;;;;;;11.28;100.00;100677.28;5056382;28;20095;-77
2022/10/21 04:19:53;;;;;;;51.25;48.65;;;;;;;11.28;100.00;100678.09;5059187;28;20780;-77
2022/10/21 04:22:18;;;;;;;46.72;44.50;;;;;;;11.19;100.00;100678.22;5060175;28;20499;-77
2022/10/21 04:24:44;;;;;;;51.50;48.65;;;;;;;11.17;100.00;100685.47;5059526;28;20043;-77
2022/10/21 04:27:09;;;;;;;55.70;52.40;;;;;;;11.28;100.00;100698.41;5044365;28;20490;-77
2022/10/21 04:29:34;;;;;;;53.70;50.83;;;;;;;11.36;100.00;100703.72;5077019;28;20949;-76
2022/10/21 04:32:00;;;;;;;57.63;54.58;;;;;;;11.41;100.00;100698.78;5060679;28;20083;-77
2022/10/21 04:34:25;;;;;;;50.47;48.00;;;;;;;11.45;100.00;100692.22;5059730;28;20028;-77
2022/10/21 04:36:50;;;;;;;59.20;56.10;;;;;;;11.51;100.00;100690.72;5060722;28;20048;-77
2022/10/21 04:39:16;;;;;;;50.72;48.20;;;;;;;11.56;100.00;100684.97;5060361;28;20037;-77
2022/10/21 04:41:43;;;;;;;48.55;45.22;;;;;;;11.60;100.00;100689.75;5061686;28;20120;-77
2022/10/21 04:44:08;;;;;;;49.75;47.05;;;;;;;11.67;100.00;100684.66;5061349;28;20060;-77
2022/10/21 04:46:34;;;;;;;47.55;44.63;;;;;;;11.69;100.00;100690.63;5060255;28;20518;-77
2022/10/21 04:48:59;;;;;;;49.60;46.85;;;;;;;11.71;100.00;100696.56;5060376;28;20037;-77
2022/10/21 04:51:24;;;;;;;51.00;48.28;;;;;;;11.66;100.00;100669.81;5061311;28;20146;-77
2022/10/21 04:53:50;;;;;;;50.63;47.83;;;;;;;11.70;100.00;100676.41;5062039;28;20036;-77
2022/10/21 04:56:15;;;;;;;52.97;50.03;;;;;;;11.67;100.00;100679.38;5060736;28;20472;-77
2022/10/21 04:58:40;;;;;;;43.30;40.75;;;;;;;11.61;100.00;100662.34;5059041;28;20441;-78
2022/10/21 05:01:06;;;;;;;50.03;46.75;;;;;;;11.58;100.00;100659.19;5044428;28;20076;-78
2022/10/21 05:03:31;;;;;;;47.33;44.95;;;;;;;11.56;100.00;100658.53;5060947;28;20028;-77
2022/10/21 05:05:56;;;;;;;47.55;45.13;;;;;;;11.51;100.00;100651.91;5060714;28;20555;-77
2022/10/21 05:08:22;;;;;;;47.60;45.08;;;;;;;11.41;100.00;100637.16;5059516;28;20028;-77
2022/10/21 05:10:47;;;;;;;49.45;46.75;;;;;;;11.35;100.00;100645.75;5060521;28;20028;-77
2022/10/21 05:13:13;;;;;;;51.13;48.25;;;;;;;11.32;100.00;100641.59;5060444;28;20083;-77
2022/10/21 05:15:39;;;;;;;43.85;41.35;;;;;;;11.30;100.00;100648.84;5060931;28;20032;-77
2022/10/21 05:18:04;;;;;;;46.15;43.40;;;;;;;11.31;100.00;100650.53;5060209;28;20032;-77
2022/10/21 05:20:30;;;;;;;46.63;43.88;;;;;;;11.32;100.00;100657.47;5061581;28;20458;-77
2022/10/21 05:22:55;;;;;;;52.22;49.38;;;;;;;11.33;100.00;100656.47;5060443;28;20098;-77
2022/10/21 05:25:21;;;;;;;51.10;47.60;;;;;;;11.22;100.00;100627.72;5059529;28;20357;-77
2022/10/21 05:27:46;;;;;;;46.25;43.53;;;;;;;11.35;100.00;100643.94;5059815;28;20341;-77
2022/10/21 05:30:12;;;;;;;47.83;44.88;;;;;;;11.26;100.00;100631.69;5060647;28;20096;-77
2022/10/21 05:32:38;;;;;;;46.75;44.10;;;;;;;11.36;100.00;100648.22;5058190;28;20358;-77
2022/10/21 05:35:04;;;;;;;41.72;39.35;;;;;;;11.35;100.00;100648.41;5059557;28;20036;-78
2022/10/21 05:37:29;;;;;;;48.20;45.45;;;;;;;11.36;100.00;100647.41;5059980;28;20035;-78
2022/10/21 05:39:55;;;;;;;48.22;45.55;;;;;;;11.36;100.00;100642.13;5059478;28;20067;-77
2022/10/21 05:42:20;;;;;;;48.60;46.03;;;;;;;11.35;100.00;100651.88;5059123;28;20118;-77
2022/10/21 05:44:47;;;;;;;48.42;45.35;;;;;;;11.35;100.00;100653.69;5058438;28;20086;-76
2022/10/21 05:47:12;;;;;;;52.70;49.63;;;;;;;11.32;100.00;100641.59;5057977;28;20451;-76
2022/10/21 05:49:38;;;;;;;49.72;46.33;;;;;;;11.26;100.00;100639.63;5059718;28;20037;-76
2022/10/21 05:52:03;;;;;;;48.92;45.50;;;;;;;11.28;100.00;100650.84;5056932;28;20389;-76
2022/10/21 05:54:29;;;;;;;50.72;47.65;;;;;;;11.29;100.00;100644.56;5057057;28;20032;-77
2022/10/21 05:56:57;;;;;;;50.55;47.88;;;;;;;11.29;100.00;100657.78;5057803;28;20480;-77
2022/10/21 05:59:24;;;;;;;49.55;46.47;;;;;;;11.23;100.00;100653.94;5040312;28;20127;-77
2022/10/21 06:01:50;;;;;;;46.40;43.75;;;;;;;11.28;100.00;100669.34;5058145;28;20044;-76
2022/10/21 06:04:15;;;;;;;49.33;46.60;;;;;;;11.24;100.00;100671.47;5057753;28;20492;-76
2022/10/21 06:06:40;;;;;;;49.38;46.78;;;;;;;11.10;100.00;100651.78;5057200;28;20043;-77
2022/10/21 06:09:06;;;;;;;49.03;46.13;;;;;;;11.23;100.00;100679.53;5056189;28;20583;-76
2022/10/21 06:11:31;;;;;;;49.95;46.83;;;;;;;11.19;100.00;100671.13;5057089;28;20073;-77
2022/10/21 06:13:56;;;;;;;48.90;45.92;;;;;;;11.18;100.00;100660.72;5058149;28;20039;-78
2022/10/21 06:16:22;;;;;;;42.78;40.15;;;;;;;11.24;100.00;100666.19;5056655;28;20381;-77
2022/10/21 06:18:48;;;;;;;48.17;45.40;;;;;;;11.23;100.00;100663.69;5053790;28;20036;-77
2022/10/21 06:21:13;;;;;;;46.53;43.65;;;;;;;11.19;100.00;100652.63;5053480;28;20036;-77
2022/10/21 06:23:39;;;;;;;48.28;45.38;;;;;;;11.09;100.00;100636.91;5051323;28;20036;-77
2022/10/21 06:26:13;;;;;;;48.50;45.45;;;;;;;11.14;100.00;100654.09;5054620;28;20135;-78
2022/10/21 06:28:41;;;;;;;48.47;45.47;;;;;;;11.11;100.00;100653.41;5055051;28;20028;-77
2022/10/21 06:31:11;;;;;;;51.65;48.95;;;;;;;10.97;100.00;100645.25;5053859;28;20024;-77
2022/10/21 06:33:36;;;;;;;48.55;45.60;;;;;;;10.99;100.00;100673.16;5051696;28;20576;-77
2022/10/21 06:36:02;;;;;;;50.70;48.03;;;;;;;10.97;100.00;100671.66;5050623;28;20043;-77
2022/10/21 06:38:28;;;;;;;48.10;45.40;;;;;;;10.90;100.00;100661.72;5059834;28;20025;-78
2022/10/21 06:41:00;;;;;;;42.83;40.53;;;;;;;10.95;100.00;100677.09;5050996;28;20059;-77
2022/10/21 06:43:26;;;;;;;56.60;53.60;;;;;;;10.86;100.00;100675.38;5050072;28;20680;-77
2022/10/21 06:45:51;;;;;;;46.83;44.03;;;;;;;10.90;100.00;100684.66;5050179;28;20041;-77
2022/10/21 06:48:17;;;;;;;50.05;47.00;;;;;;;10.91;100.00;100683.69;5053300;28;20437;-77
2022/10/21 06:50:42;;;;;;;55.20;51.85;;;;;;;10.94;100.00;100686.00;5056055;28;20671;-77
2022/10/21 06:53:07;;;;;;;48.97;46.30;;;;;;;10.78;100.00;100664.78;5053674;28;20029;-77
2022/10/21 06:55:33;;;;;;;48.55;45.97;;;;;;;10.98;100.00;100691.81;5051327;28;20033;-77
2022/10/21 06:57:58;;;;;;;45.28;42.70;;;;;;;10.95;100.00;100687.66;5055061;28;20047;-77
2022/10/21 07:00:24;;;;;;;51.28;47.97;;;;;;;10.93;100.00;100694.94;5051887;28;20119;-77
2022/10/21 07:02:49;;;;;;;49.83;47.17;;;;;;;10.82;100.00;100684.59;5053202;28;20055;-77
2022/10/21 07:05:14;;;;;;;48.15;45.33;;;;;;;10.94;100.00;100701.03;5026814;28;20025;-77
2022/10/21 07:07:40;;;;;;;49.90;47.08;;;;;;;10.94;100.00;100691.28;5054273;28;20426;-77
2022/10/21 07:10:06;;;;;;;47.08;44.42;;;;;;;10.96;100.00;100694.59;5036947;28;20581;-77
2022/10/21 07:12:31;;;;;;;46.38;43.88;;;;;;;10.98;100.00;100687.34;5052789;28;20031;-77
2022/10/21 07:14:56;;;;;;;50.78;48.00;;;;;;;11.04;100.00;100685.88;5056814;28;20061;-78
2022/10/21 07:17:22;;;;;;;48.83;46.17;;;;;;;11.08;100.00;100692.50;5055516;28;20032;-77
2022/10/21 07:19:47;;;;;;;52.67;49.47;;;;;;;11.10;100.00;100680.84;5054997;28;20029;-77
2022/10/21 07:22:13;;;;;;;51.67;48.47;;;;;;;11.16;100.00;100681.19;5054356;28;20044;-77
2022/10/21 07:24:39;;;;;;;48.75;46.08;;;;;;;11.13;100.00;100679.69;5055299;28;20039;-77
2022/10/21 07:27:05;;;;;;;51.08;48.40;;;;;;;11.25;100.00;100681.03;5056689;28;20032;-79
2022/10/21 07:29:30;;;;;;;55.90;53.13;;;;;;;11.38;100.00;100682.41;5056462;28;20029;-78
2022/10/21 07:31:56;;;;;;;52.05;49.20;;;;;;;11.43;100.00;100686.25;5057372;28;20025;-77
2022/10/21 07:34:21;;;;;;;52.05;48.78;;;;;;;11.43;100.00;100680.13;5056131;28;20727;-77
2022/10/21 07:36:48;;;;;;;50.30;47.55;;;;;;;11.49;100.00;100690.88;5058812;28;20040;-77
2022/10/21 07:39:16;;;;;;;51.63;48.30;;;;;;;11.55;100.00;100691.25;5056775;28;20028;-77
2022/10/21 07:41:49;;;;;;;48.50;45.47;;;;;;;11.48;100.00;100683.94;5064718;28;20025;-77
2022/10/21 07:44:15;;;;;;;48.55;45.75;;;;;;;11.62;100.00;100693.06;5056684;28;20032;-77
2022/10/21 07:46:42;;;;;;;49.38;46.88;;;;;;;11.66;100.00;100691.78;5057879;28;20033;-77
2022/10/21 07:49:08;;;;;;;49.67;46.47;;;;;;;11.69;100.00;100688.81;5057377;28;20031;-77
2022/10/21 07:51:33;;;;;;;50.58;47.80;;;;;;;11.69;100.00;100695.91;5057312;28;20028;-77
2022/10/21 07:53:59;;;;;;;47.22;44.65;;;;;;;11.73;100.00;100691.94;5056120;28;20141;-77
2022/10/21 07:56:47;;;;;;;44.58;41.92;;;;;;;11.74;100.00;100693.63;5059945;28;20031;-77
2022/10/21 07:59:14;;;;;;;51.05;48.28;;;;;;;11.82;100.00;100698.91;5058373;28;20021;-77
2022/10/21 08:01:42;;;;;;;44.70;42.17;;;;;;;11.91;100.00;100686.56;5060674;28;20051;-77
2022/10/21 08:04:09;;;;;;;47.13;44.50;;;;;;;11.98;100.00;100692.06;5061424;28;20452;-77
2022/10/21 08:06:34;;;;;;;51.15;48.00;;;;;;;12.05;100.00;100701.81;5068081;28;20387;-76
2022/10/21 08:09:00;;;;;;;46.20;43.70;;;;;;;12.05;100.00;100687.75;5061995;28;20044;-77
2022/10/21 08:11:30;;;;;;;45.35;42.85;;;;;;;12.19;100.00;100696.84;5061604;28;20786;-77
2022/10/21 08:13:56;;;;;;;47.17;44.28;;;;;;;12.13;100.00;100685.13;5061932;28;20035;-77
2022/10/21 08:16:22;;;;;;;48.63;45.55;;;;;;;12.23;100.00;100695.53;5061322;28;20487;-76
2022/10/21 08:18:48;;;;;;;45.70;43.03;;;;;;;12.20;100.00;100701.16;5058446;28;20103;-77
2022/10/21 08:21:13;;;;;;;41.83;39.35;;;;;;;12.25;100.00;100693.56;5061705;28;20032;-77
2022/10/21 08:23:39;;;;;;;41.70;39.00;;;;;;;12.34;100.00;100701.31;5059403;28;20389;-77
2022/10/21 08:26:08;;;;;;;47.00;44.05;;;;;;;12.38;100.00;100701.00;5059715;28;20063;-77
2022/10/21 08:28:34;;;;;;;40.88;38.53;;;;;;;12.26;100.00;100679.31;5058337;28;20028;-77
2022/10/21 08:31:09;;;;;;;46.75;43.75;;;;;;;12.46;100.00;100687.78;5059230;28;20658;-77
2022/10/21 08:33:35;;;;;;;45.72;43.33;;;;;;;12.60;100.00;100684.44;5056868;28;20029;-77
2022/10/21 08:36:17;;;;;;;44.60;42.25;;;;;;;12.73;100.00;100690.06;5057803;28;20028;-77
2022/10/21 08:38:43;;;;;;;44.25;41.78;;;;;;;12.93;100.00;100672.00;5059189;28;20039;-77
2022/10/21 08:41:25;;;;;;;43.90;41.60;;;;;;;13.18;100.00;100672.72;5056826;28;20028;-77
2022/10/21 08:43:53;;;;;;;43.92;41.35;;;;;;;13.33;100.00;100674.69;5058050;28;20036;-77
2022/10/21 08:46:33;;;;;;;39.10;36.60;;;;;;;13.59;100.00;100674.41;5057627;28;20124;-76
2022/10/21 08:49:05;;;;;;;37.53;35.42;;;;;;;13.79;100.00;100677.44;5057520;28;20087;-76
2022/10/21 08:51:48;;;;;;;43.17;41.08;;;;;;;13.90;100.00;100671.72;5058173;28;20740;-76
2022/10/21 08:54:25;;;;;;;37.78;35.78;;;;;;;13.94;100.00;100675.69;5059496;28;20032;-76
2022/10/21 08:56:55;;;;;;;32.70;30.73;;;;;;;13.88;100.00;100657.81;5066628;28;20039;-76
2022/10/21 08:59:23;;;;;;;30.90;29.10;;;;;;;13.90;100.00;100666.44;5058016;28;20024;-76
2022/10/21 09:01:58;;;;;;;31.95;30.00;;;;;;;13.85;100.00;100658.19;5056940;28;20477;-76
2022/10/21 09:05:06;;;;;;;37.65;35.20;;;;;;;13.88;100.00;100660.47;5057066;28;20045;-76
2022/10/21 09:07:49;;;;;;;32.53;30.73;;;;;;;13.79;100.00;100674.78;5056177;28;20032;-76
2022/10/21 09:10:52;;;;;;;37.30;35.22;;;;;;;13.79;100.00;100669.50;5064777;28;20115;-75
2022/10/21 09:14:03;;;;;;;34.42;32.47;;;;;;;13.74;100.00;100682.44;5054716;28;20032;-76
2022/10/21 09:16:38;;;;;;;40.67;38.80;;;;;;;13.84;100.00;100685.69;5054762;28;20028;-76
2022/10/21 09:19:21;;;;;;;45.45;42.97;;;;;;;13.97;100.00;100682.47;5057428;28;20021;-77
2022/10/21 09:22:05;;;;;;;44.80;42.10;;;;;;;14.08;100.00;100687.34;5053900;28;20036;-76
2022/10/21 09:24:42;;;;;;;39.10;37.05;;;;;;;14.19;100.00;100686.94;5058871;28;20609;-76
2022/10/21 09:27:09;;;;;;;41.97;39.60;;;;;;;14.39;100.00;100681.16;5059167;28;20093;-77
2022/10/21 09:29:48;;;;;;;40.15;37.65;;;;;;;14.86;100.00;100679.25;5059917;28;20388;-77
2022/10/21 09:32:16;;;;;;;40.53;38.03;;;;;;;15.51;100.00;100680.34;5058720;28;20066;-76
2022/10/21 09:35:31;;;;;;;37.00;34.85;;;;;;;15.95;100.00;100677.56;5056841;28;20029;-76
2022/10/21 09:38:11;;;;;;;32.05;30.33;;;;;;;16.32;100.00;100678.31;5004473;28;20044;-76
2022/10/21 09:40:36;;;;;;;31.27;29.35;;;;;;;16.86;100.00;100653.75;5005539;28;20072;-78
2022/10/21 09:43:04;;;;;;;37.45;35.45;;;;;;;17.69;100.00;100669.69;4989349;28;20034;-77
2022/10/21 09:45:36;;;;;;;27.55;25.90;;;;;;;18.03;100.00;100675.13;5001429;28;20029;-77
2022/10/21 09:48:21;;;;;;;20.80;19.20;;;;;;;17.98;98.30;100666.91;4988861;28;20046;-77
2022/10/21 09:51:09;;;;;;;18.40;16.88;;;;;;;18.10;97.46;100657.28;5002276;28;20253;-77
2022/10/21 09:54:01;;;;;;;20.52;19.20;;;;;;;18.55;94.38;100672.69;5003565;28;20037;-77
2022/10/21 09:56:41;;;;;;;16.15;15.13;;;;;;;18.76;95.18;100672.47;4989513;28;20099;-77
2022/10/21 09:59:17;;;;;;;14.50;13.52;;;;;;;18.50;92.53;100671.44;5003266;28;20033;-77
2022/10/21 10:01:44;;;;;;;16.90;15.70;;;;;;;18.21;96.33;100674.56;5001598;28;20045;-77
2022/10/21 10:04:29;;;;;;;16.23;14.93;;;;;;;17.86;97.23;100670.19;4990107;28;20037;-77
2022/10/21 10:06:57;;;;;;;15.63;14.50;;;;;;;17.22;99.42;100663.38;5005167;28;20057;-76
2022/10/21 10:09:31;;;;;;;17.85;16.75;;;;;;;17.38;100.00;100674.72;5003646;28;20045;-77
2022/10/21 10:12:05;;;;;;;19.98;18.50;;;;;;;17.40;100.00;100667.34;5003761;28;20037;-76
2022/10/21 10:14:35;;;;;;;21.60;20.00;;;;;;;17.47;100.00;100670.84;5049616;28;20785;-77
2022/10/21 10:17:24;;;;;;;21.58;20.23;;;;;;;17.64;100.00;100669.47;5070562;28;20118;-77
2022/10/21 10:20:04;;;;;;;21.63;20.35;;;;;;;17.93;100.00;100680.88;5056924;28;20037;-77
2022/10/21 10:22:42;;;;;;;19.98;18.23;;;;;;;18.14;97.73;100687.06;5057916;28;20049;-77
2022/10/21 10:25:17;;;;;;;20.45;18.85;;;;;;;18.36;97.87;100680.50;5054336;28;20067;-76
2022/10/21 10:27:48;;;;;;;20.58;19.48;;;;;;;19.67;94.78;100687.63;5056704;28;20032;-77
2022/10/21 10:30:15;;;;;;;19.50;18.30;;;;;;;20.11;91.72;100685.13;5055885;28;20048;-77
2022/10/21 10:32:42;;;;;;;15.73;14.50;;;;;;;20.00;88.11;100693.84;5055745;28;20024;-77
2022/10/21 10:35:20;;;;;;;14.35;13.18;;;;;;;20.43;87.04;100698.50;5055995;28;20028;-77
2022/10/21 10:37:48;;;;;;;11.30;10.30;;;;;;;19.98;87.85;100672.63;5056136;28;20117;-77
2022/10/21 10:40:22;;;;;;;13.38;12.25;;;;;;;20.86;88.16;100692.34;5057022;28;20033;-77
2022/10/21 10:42:50;;;;;;;13.55;12.57;;;;;;;21.57;84.82;100704.38;5056332;28;20033;-77
2022/10/21 10:45:21;;;;;;;9.70;8.75;;;;;;;20.66;83.51;100696.03;5055213;28;20020;-77
2022/10/21 10:48:02;;;;;;;10.23;9.43;;;;;;;19.49;89.22;100692.88;5054450;28;20751;-78
2022/10/21 10:50:36;;;;;;;11.80;10.90;;;;;;;19.54;91.45;100701.06;5056382;28;20021;-77
2022/10/21 10:53:26;;;;;;;14.32;11.68;;;;;;;19.37;92.67;100691.88;5057123;28;20027;-76
2022/10/21 10:56:21;;;;;;;13.40;12.52;;;;;;;18.85;93.50;100692.63;5055911;28;20028;-77
2022/10/21 10:58:59;;;;;;;15.27;14.18;;;;;;;18.41;95.37;100680.72;5019803;28;20037;-74
2022/10/21 11:01:36;;;;;;;16.92;15.82;;;;;;;18.39;98.19;100692.63;5055573;28;20025;-75
2022/10/21 11:04:14;;;;;;;18.63;17.50;;;;;;;18.61;97.24;100690.56;5063052;28;20037;-75
2022/10/21 11:06:44;;;;;;;18.27;17.17;;;;;;;18.19;98.49;100685.44;5062207;28;20032;-75
2022/10/21 11:09:10;;;;;;;22.15;20.27;;;;;;;18.22;98.26;100694.88;5056827;28;20510;-75
2022/10/21 11:11:40;;;;;;;24.63;23.23;;;;;;;18.11;100.00;100690.16;5055681;28;20029;-75
2022/10/21 11:14:12;;;;;;;23.70;22.50;;;;;;;18.20;100.00;100691.59;5055546;28;20552;-75
2022/10/21 11:16:59;;;;;;;24.10;21.75;;;;;;;17.73;100.00;100670.13;5056333;28;20052;-75